Time;durP1;ratioP1;P1;durP2;ratioP2;P2;SDS_P1;SDS_P2;PMS_P1;PMS_P2;Temp;Humidity;BMP_temperature;BMP_pressure;BME280_temperature;BME280_humidity;BME280_pressure;Samples;Min_cycle;Max_cycle;Signal;HPM_P1;HPM_P2
2021/01/03 00:01:00;;;;;;;88.03;27.53;;;;;;;;;;5010576;28;20056;-87
2021/01/03 00:03:25;;;;;;;86.60;26.57;;;;;;;;;;5011791;28;20101;-87
2021/01/03 00:05:50;;;;;;;82.27;24.00;;;;;;;;;;5009489;28;20022;-87
2021/01/03 00:08:16;;;;;;;73.03;23.07;;;;;;;;;;5012806;28;20014;-87
2021/01/03 00:10:41;;;;;;;73.63;22.73;;;;;;;;;;5009958;28;20018;-88
2021/01/03 00:13:06;;;;;;;67.53;20.97;;;;;;;;;;5011712;28;20499;-88
2021/01/03 00:15:31;;;;;;;74.60;22.57;;;;;;;;;;5010948;28;20013;-88
2021/01/03 00:17:56;;;;;;;69.60;22.20;;;;;;;;;;5008392;28;20029;-87
2021/01/03 00:20:23;;;;;;;75.17;22.90;;;;;;;;;;5013239;28;20386;-88
2021/01/03 00:22:49;;;;;;;73.33;24.30;;;;;;;;;;5013825;28;20022;-87
2021/01/03 00:25:15;;;;;;;75.03;23.00;;;;;;;;;;5016420;28;20036;-87
2021/01/03 00:27:40;;;;;;;77.37;23.73;;;;;;;;;;5010963;28;20022;-87
2021/01/03 00:30:07;;;;;;;80.07;25.43;;;;;;;;;;5014526;28;20170;-88
2021/01/03 00:32:32;;;;;;;80.57;24.63;;;;;;;;;;5013815;28;20018;-88
2021/01/03 00:34:58;;;;;;;80.67;25.40;;;;;;;;;;5014099;28;20026;-87
2021/01/03 00:37:23;;;;;;;83.87;25.47;;;;;;;;;;5016642;28;20014;-88
2021/01/03 00:39:49;;;;;;;87.00;26.63;;;;;;;;;;5014778;28;20372;-88
2021/01/03 00:42:14;;;;;;;84.03;25.23;;;;;;;;;;5014804;28;20041;-88
2021/01/03 00:44:39;;;;;;;78.47;23.53;;;;;;;;;;5025472;28;20026;-88
2021/01/03 00:47:05;;;;;;;85.03;25.33;;;;;;;;;;5011259;28;20022;-87
2021/01/03 00:49:30;;;;;;;77.90;23.40;;;;;;;;;;5010748;28;20104;-88
2021/01/03 00:51:55;;;;;;;83.07;23.47;;;;;;;;;;5010341;28;20017;-87
2021/01/03 00:54:20;;;;;;;80.13;23.83;;;;;;;;;;5010596;28;20468;-88
2021/01/03 00:56:45;;;;;;;63.67;20.50;;;;;;;;;;5011554;28;20021;-88
2021/01/03 00:59:11;;;;;;;75.43;22.47;;;;;;;;;;5010147;28;20033;-87
2021/01/03 01:01:36;;;;;;;79.87;22.97;;;;;;;;;;5010626;28;20036;-88
2021/01/03 01:04:01;;;;;;;71.50;21.10;;;;;;;;;;5010383;28;20018;-87
2021/01/03 01:06:26;;;;;;;61.93;20.47;;;;;;;;;;5012083;28;20017;-87
2021/01/03 01:08:51;;;;;;;74.80;20.67;;;;;;;;;;5010965;28;20117;-87
2021/01/03 01:11:17;;;;;;;71.77;22.33;;;;;;;;;;5011033;28;20028;-87
2021/01/03 01:13:42;;;;;;;68.23;20.47;;;;;;;;;;5009230;28;20072;-87
2021/01/03 01:16:08;;;;;;;54.30;19.10;;;;;;;;;;5010456;28;20024;-88
2021/01/03 01:18:34;;;;;;;62.30;20.13;;;;;;;;;;5010649;28;20133;-87
2021/01/03 01:20:59;;;;;;;60.63;19.53;;;;;;;;;;5010738;28;20029;-87
2021/01/03 01:23:24;;;;;;;62.67;20.03;;;;;;;;;;5009610;28;20050;-87
2021/01/03 01:25:49;;;;;;;65.27;20.80;;;;;;;;;;5009519;28;20526;-88
2021/01/03 01:28:15;;;;;;;67.70;21.60;;;;;;;;;;5009688;28;20147;-88
2021/01/03 01:30:40;;;;;;;76.20;23.77;;;;;;;;;;5011420;28;20021;-88
2021/01/03 01:33:05;;;;;;;77.20;22.53;;;;;;;;;;5010082;28;20022;-87
2021/01/03 01:35:32;;;;;;;74.37;22.77;;;;;;;;;;5010434;28;20032;-88
2021/01/03 01:37:57;;;;;;;81.00;23.17;;;;;;;;;;5010275;28;20363;-88
2021/01/03 01:40:34;;;;;;;77.73;21.87;;;;;;;;;;5009548;28;20129;-88
2021/01/03 01:42:59;;;;;;;74.57;21.77;;;;;;;;;;5008733;28;20045;-88
2021/01/03 01:45:27;;;;;;;79.77;22.50;;;;;;;;;;5011253;28;20105;-88
2021/01/03 01:47:55;;;;;;;71.17;21.73;;;;;;;;;;5011326;28;20034;-87
2021/01/03 01:50:22;;;;;;;74.10;22.70;;;;;;;;;;5011304;28;20460;-88
2021/01/03 01:52:53;;;;;;;69.10;21.00;;;;;;;;;;5009836;28;20028;-87
2021/01/03 01:55:21;;;;;;;66.13;19.90;;;;;;;;;;5009824;28;20038;-87
2021/01/03 01:57:55;;;;;;;71.83;21.20;;;;;;;;;;5009585;28;20026;-88
2021/01/03 02:00:26;;;;;;;71.90;21.43;;;;;;;;;;5009658;28;20018;-88
2021/01/03 02:02:58;;;;;;;79.53;23.40;;;;;;;;;;5022316;28;20071;-88
2021/01/03 02:05:27;;;;;;;65.70;20.90;;;;;;;;;;4996319;28;20018;-88
2021/01/03 02:07:52;;;;;;;77.93;23.23;;;;;;;;;;5011242;28;20493;-87
2021/01/03 02:10:23;;;;;;;78.27;23.80;;;;;;;;;;5013182;28;20095;-88
2021/01/03 02:12:51;;;;;;;73.77;22.80;;;;;;;;;;5017824;28;20394;-87
2021/01/03 02:15:20;;;;;;;73.67;22.73;;;;;;;;;;5009347;28;20017;-88
2021/01/03 02:17:45;;;;;;;71.77;22.50;;;;;;;;;;5009364;28;20022;-88
2021/01/03 02:20:14;;;;;;;71.60;21.73;;;;;;;;;;5008097;28;20124;-88
2021/01/03 02:22:42;;;;;;;69.67;23.00;;;;;;;;;;5010259;28;20053;-88
2021/01/03 02:25:09;;;;;;;65.10;23.60;;;;;;;;;;5009397;28;20543;-88
2021/01/03 02:27:45;;;;;;;69.00;22.33;;;;;;;;;;5022111;28;20033;-88
2021/01/03 02:30:11;;;;;;;69.13;22.97;;;;;;;;;;5008366;28;20014;-87
2021/01/03 02:32:41;;;;;;;68.67;21.73;;;;;;;;;;5010168;28;20025;-88
2021/01/03 02:35:07;;;;;;;70.97;21.70;;;;;;;;;;5009495;28;20086;-87
2021/01/03 02:37:37;;;;;;;81.30;25.87;;;;;;;;;;5009001;28;20176;-88
2021/01/03 02:40:29;;;;;;;72.17;23.83;;;;;;;;;;5008154;28;20026;-88
2021/01/03 02:42:54;;;;;;;68.30;22.47;;;;;;;;;;5019041;28;20045;-87
2021/01/03 02:45:26;;;;;;;72.07;23.20;;;;;;;;;;5010648;28;20025;-88
2021/01/03 02:47:52;;;;;;;68.75;21.83;;;;;;;;;;5009277;28;20483;-87
2021/01/03 02:50:20;;;;;;;63.90;21.50;;;;;;;;;;5008022;28;20046;-88
2021/01/03 02:52:45;;;;;;;68.03;22.43;;;;;;;;;;5009742;28;20021;-88
2021/01/03 02:55:12;;;;;;;65.73;22.70;;;;;;;;;;5007889;28;20032;-87
2021/01/03 02:57:38;;;;;;;63.27;21.23;;;;;;;;;;5006606;28;20022;-88
2021/01/03 03:00:08;;;;;;;72.07;24.10;;;;;;;;;;5007637;28;20018;-87
2021/01/03 03:02:33;;;;;;;65.97;23.07;;;;;;;;;;5007355;28;20037;-87
2021/01/03 03:04:58;;;;;;;71.33;23.40;;;;;;;;;;5009667;28;20381;-88
2021/01/03 03:07:23;;;;;;;87.37;24.83;;;;;;;;;;5009866;28;20484;-87
2021/01/03 03:09:49;;;;;;;80.20;26.20;;;;;;;;;;5008315;28;20018;-87
2021/01/03 03:12:14;;;;;;;82.63;25.17;;;;;;;;;;5008098;28;20361;-88
2021/01/03 03:14:39;;;;;;;83.57;24.60;;;;;;;;;;5007695;28;20056;-88
2021/01/03 03:17:06;;;;;;;87.47;26.13;;;;;;;;;;5008035;28;20420;-87
2021/01/03 03:19:31;;;;;;;83.53;24.70;;;;;;;;;;5008362;28;20044;-88
2021/01/03 03:21:56;;;;;;;81.50;25.00;;;;;;;;;;5008152;28;20022;-88
2021/01/03 03:24:22;;;;;;;82.53;25.43;;;;;;;;;;5007486;28;20102;-87
2021/01/03 03:26:54;;;;;;;87.60;25.87;;;;;;;;;;5008190;28;20041;-87
2021/01/03 03:29:20;;;;;;;84.40;25.23;;;;;;;;;;5007759;28;20033;-88
2021/01/03 03:31:45;;;;;;;89.83;27.30;;;;;;;;;;5007971;28;20030;-88
2021/01/03 03:34:10;;;;;;;95.23;29.13;;;;;;;;;;5007773;28;20192;-87
2021/01/03 03:36:36;;;;;;;87.37;27.37;;;;;;;;;;5008107;28;20353;-87
2021/01/03 03:39:01;;;;;;;79.40;25.77;;;;;;;;;;5007554;28;20476;-88
2021/01/03 03:41:26;;;;;;;86.77;25.03;;;;;;;;;;5008043;28;20341;-87
2021/01/03 03:43:52;;;;;;;81.00;24.57;;;;;;;;;;5007235;28;20029;-88
2021/01/03 03:46:17;;;;;;;76.07;23.93;;;;;;;;;;5022388;28;20029;-88
2021/01/03 03:48:43;;;;;;;84.07;24.93;;;;;;;;;;5007900;28;20301;-87
2021/01/03 03:51:08;;;;;;;91.70;28.43;;;;;;;;;;5007525;28;20024;-88
2021/01/03 03:53:33;;;;;;;89.67;26.23;;;;;;;;;;5007137;28;20109;-88
2021/01/03 03:55:58;;;;;;;86.87;26.83;;;;;;;;;;5007420;28;20090;-88
2021/01/03 03:58:24;;;;;;;93.17;26.83;;;;;;;;;;5006677;28;20021;-88
2021/01/03 04:00:49;;;;;;;100.33;27.73;;;;;;;;;;5007458;28;20464;-87
2021/01/03 04:03:17;;;;;;;95.70;29.03;;;;;;;;;;5006962;28;20026;-88
2021/01/03 04:05:44;;;;;;;87.47;26.73;;;;;;;;;;5007784;28;20025;-88
2021/01/03 04:08:09;;;;;;;87.73;27.27;;;;;;;;;;5007979;28;20546;-88
2021/01/03 04:10:40;;;;;;;89.80;25.30;;;;;;;;;;5007409;28;20026;-87
2021/01/03 04:13:05;;;;;;;87.67;26.83;;;;;;;;;;5006889;28;20085;-87
2021/01/03 04:15:30;;;;;;;90.33;26.23;;;;;;;;;;5007842;28;20018;-86
2021/01/03 04:17:55;;;;;;;90.93;25.93;;;;;;;;;;5008218;28;20018;-88
2021/01/03 04:20:21;;;;;;;94.57;27.73;;;;;;;;;;5007522;28;20045;-88
2021/01/03 04:22:46;;;;;;;82.00;26.33;;;;;;;;;;5007735;28;20018;-88
2021/01/03 04:25:12;;;;;;;91.63;27.87;;;;;;;;;;5007123;28;20029;-88
2021/01/03 04:27:37;;;;;;;93.27;29.23;;;;;;;;;;5007000;28;20072;-88
2021/01/03 04:30:04;;;;;;;94.47;30.43;;;;;;;;;;5007261;28;20022;-87
2021/01/03 04:32:29;;;;;;;101.53;31.10;;;;;;;;;;5007820;28;20399;-87
2021/01/03 04:34:55;;;;;;;95.27;27.73;;;;;;;;;;5008238;28;20033;-88
2021/01/03 04:37:20;;;;;;;90.23;26.83;;;;;;;;;;5009461;28;20376;-88
2021/01/03 04:39:45;;;;;;;86.83;27.33;;;;;;;;;;5007544;28;20105;-88
2021/01/03 04:42:14;;;;;;;85.90;27.20;;;;;;;;;;5007381;28;20030;-87
2021/01/03 04:44:51;;;;;;;85.73;27.43;;;;;;;;;;5007062;28;20022;-87
2021/01/03 04:47:31;;;;;;;85.00;26.67;;;;;;;;;;5007323;28;20029;-88
2021/01/03 04:49:56;;;;;;;84.80;28.57;;;;;;;;;;5014747;28;20029;-88
2021/01/03 04:52:21;;;;;;;82.10;27.77;;;;;;;;;;5013618;28;20016;-87
2021/01/03 04:54:49;;;;;;;89.72;27.80;;;;;;;;;;5007200;28;20033;-88
2021/01/03 04:57:19;;;;;;;92.30;28.20;;;;;;;;;;5007688;28;20029;-88
2021/01/03 04:59:49;;;;;;;82.73;27.27;;;;;;;;;;5006766;28;20029;-88
2021/01/03 05:02:50;;;;;;;88.50;27.77;;;;;;;;;;5007528;28;20129;-88
2021/01/03 05:05:21;;;;;;;88.80;27.30;;;;;;;;;;4965943;28;20027;-88
2021/01/03 05:08:15;;;;;;;83.97;25.73;;;;;;;;;;5003956;28;20068;-89
2021/01/03 05:10:40;;;;;;;87.70;27.80;;;;;;;;;;5005379;28;20076;-88
2021/01/03 05:13:09;;;;;;;85.87;27.93;;;;;;;;;;5010261;28;20049;-88
2021/01/03 05:15:34;;;;;;;82.83;25.57;;;;;;;;;;5010374;28;20028;-88
2021/01/03 05:18:01;;;;;;;92.90;27.70;;;;;;;;;;5010852;28;20022;-88
2021/01/03 05:20:26;;;;;;;91.33;27.87;;;;;;;;;;5010568;28;20022;-88
2021/01/03 05:22:51;;;;;;;90.77;28.33;;;;;;;;;;5010440;28;20167;-88
2021/01/03 05:25:18;;;;;;;88.73;27.73;;;;;;;;;;5010301;28;20045;-88
2021/01/03 05:28:00;;;;;;;92.67;28.50;;;;;;;;;;5010195;28;20432;-88
2021/01/03 05:30:26;;;;;;;81.90;25.50;;;;;;;;;;5010005;28;20022;-88
2021/01/03 05:32:51;;;;;;;89.93;27.40;;;;;;;;;;5010040;28;20255;-88
2021/01/03 05:35:18;;;;;;;77.27;23.83;;;;;;;;;;5011869;28;20022;-87
2021/01/03 05:37:44;;;;;;;89.87;28.50;;;;;;;;;;5010574;28;20377;-88
2021/01/03 05:40:24;;;;;;;88.83;29.03;;;;;;;;;;5011573;28;20406;-88
2021/01/03 05:42:53;;;;;;;88.27;27.90;;;;;;;;;;5009931;28;20392;-88
2021/01/03 05:45:26;;;;;;;85.63;28.33;;;;;;;;;;5010339;28;20032;-88
2021/01/03 05:47:59;;;;;;;85.80;26.70;;;;;;;;;;5010410;28;20037;-88
2021/01/03 05:50:24;;;;;;;85.13;27.93;;;;;;;;;;5009676;28;20036;-88
2021/01/03 05:52:52;;;;;;;96.43;29.27;;;;;;;;;;5009544;28;20014;-88
2021/01/03 05:55:18;;;;;;;87.93;27.60;;;;;;;;;;5010046;28;20101;-88
2021/01/03 05:57:44;;;;;;;97.57;28.90;;;;;;;;;;5009497;28;20465;-86
2021/01/03 06:00:35;;;;;;;89.10;28.20;;;;;;;;;;5009016;28;20026;-88
2021/01/03 06:03:10;;;;;;;90.70;29.03;;;;;;;;;;5008594;28;20037;-88
2021/01/03 06:05:41;;;;;;;94.30;29.57;;;;;;;;;;5011040;28;20507;-88
2021/01/03 06:08:16;;;;;;;94.70;29.13;;;;;;;;;;5009715;28;20024;-88
2021/01/03 06:10:42;;;;;;;90.63;28.23;;;;;;;;;;5010412;28;20100;-89
2021/01/03 06:13:08;;;;;;;88.43;29.03;;;;;;;;;;5008452;28;20109;-88
2021/01/03 06:15:37;;;;;;;87.27;28.73;;;;;;;;;;5008672;28;20501;-88
2021/01/03 06:18:03;;;;;;;88.63;28.60;;;;;;;;;;5010030;28;20018;-88
2021/01/03 06:20:30;;;;;;;93.30;30.43;;;;;;;;;;5008903;28;20018;-88
2021/01/03 06:23:00;;;;;;;96.27;30.53;;;;;;;;;;5009223;28;20496;-88
2021/01/03 06:25:43;;;;;;;90.57;28.20;;;;;;;;;;5009173;28;20038;-88
2021/01/03 06:28:13;;;;;;;89.85;29.40;;;;;;;;;;5008759;28;20022;-88
2021/01/03 06:30:40;;;;;;;96.10;30.63;;;;;;;;;;5008892;28;20798;-88
2021/01/03 06:33:11;;;;;;;93.27;29.73;;;;;;;;;;5010072;28;20018;-88
2021/01/03 06:35:44;;;;;;;90.80;30.47;;;;;;;;;;5009193;28;20101;-88
2021/01/03 06:38:14;;;;;;;88.13;28.95;;;;;;;;;;5008914;28;20369;-88
2021/01/03 06:40:44;;;;;;;82.57;28.60;;;;;;;;;;5008794;28;20034;-88
2021/01/03 06:43:35;;;;;;;83.73;28.03;;;;;;;;;;5008038;28;20113;-88
2021/01/03 06:46:08;;;;;;;89.47;29.00;;;;;;;;;;5022979;28;20388;-87
2021/01/03 06:48:33;;;;;;;96.17;30.40;;;;;;;;;;5008930;28;20056;-88
2021/01/03 06:51:16;;;;;;;93.25;29.35;;;;;;;;;;5008092;28;20045;-88
2021/01/03 06:54:00;;;;;;;91.77;29.37;;;;;;;;;;5008136;28;20029;-88
2021/01/03 06:56:25;;;;;;;96.47;29.50;;;;;;;;;;4995406;28;20053;-88
2021/01/03 06:59:13;;;;;;;88.00;29.63;;;;;;;;;;5009307;28;20479;-87
2021/01/03 07:01:39;;;;;;;79.00;28.13;;;;;;;;;;5008189;28;20031;-88
2021/01/03 07:04:10;;;;;;;83.63;27.80;;;;;;;;;;5008240;28;20468;-87
2021/01/03 07:06:37;;;;;;;83.20;29.33;;;;;;;;;;5008667;28;20029;-87
2021/01/03 07:09:07;;;;;;;85.20;28.27;;;;;;;;;;5008286;28;20022;-88
2021/01/03 07:11:39;;;;;;;90.23;28.27;;;;;;;;;;5008436;28;20022;-87
2021/01/03 07:14:06;;;;;;;85.77;26.67;;;;;;;;;;5008486;28;20369;-87
2021/01/03 07:16:49;;;;;;;77.77;26.13;;;;;;;;;;5008819;28;20101;-87
2021/01/03 07:19:25;;;;;;;81.37;26.57;;;;;;;;;;5008674;28;20124;-87
2021/01/03 07:21:50;;;;;;;80.30;26.17;;;;;;;;;;5008091;28;20037;-87
2021/01/03 07:24:33;;;;;;;88.30;28.53;;;;;;;;;;5008012;28;20018;-87
2021/01/03 07:27:21;;;;;;;84.87;27.07;;;;;;;;;;5007639;28;20049;-88
2021/01/03 07:29:55;;;;;;;75.70;25.30;;;;;;;;;;5007640;28;20344;-88
2021/01/03 07:32:22;;;;;;;83.13;26.97;;;;;;;;;;5005699;28;20029;-88
2021/01/03 07:34:52;;;;;;;84.67;27.93;;;;;;;;;;5008603;28;20018;-88
2021/01/03 07:37:19;;;;;;;85.50;26.53;;;;;;;;;;5006712;28;20028;-88
2021/01/03 07:39:56;;;;;;;92.63;28.33;;;;;;;;;;5004465;28;20428;-87
2021/01/03 07:42:23;;;;;;;82.93;27.93;;;;;;;;;;5013810;28;20473;-87
2021/01/03 07:44:50;;;;;;;89.00;28.20;;;;;;;;;;5007762;28;20026;-87
2021/01/03 07:47:34;;;;;;;82.00;27.07;;;;;;;;;;5006750;28;20028;-87
2021/01/03 07:50:22;;;;;;;95.80;28.67;;;;;;;;;;5021199;28;20018;-87
2021/01/03 07:52:48;;;;;;;88.43;28.73;;;;;;;;;;5017303;28;20097;-87
2021/01/03 07:55:36;;;;;;;94.67;29.37;;;;;;;;;;5011698;28;20141;-88
2021/01/03 07:58:04;;;;;;;91.73;29.83;;;;;;;;;;5017360;28;20374;-88
2021/01/03 08:00:31;;;;;;;86.03;28.20;;;;;;;;;;5010445;28;20091;-92
2021/01/03 08:03:10;;;;;;;88.87;30.00;;;;;;;;;;5007697;28;20365;-88
2021/01/03 08:05:37;;;;;;;92.37;28.80;;;;;;;;;;5013043;28;20049;-91
2021/01/03 08:08:10;;;;;;;90.20;31.13;;;;;;;;;;5009951;28;20030;-91
2021/01/03 08:10:35;;;;;;;89.90;29.40;;;;;;;;;;5007382;28;20550;-84
2021/01/03 08:13:08;;;;;;;98.40;31.87;;;;;;;;;;5005604;28;20038;-85
2021/01/03 08:15:35;;;;;;;94.03;30.00;;;;;;;;;;5008328;28;20033;-86
2021/01/03 08:18:11;;;;;;;98.40;31.23;;;;;;;;;;5023834;28;20104;-86
2021/01/03 08:20:36;;;;;;;94.90;30.20;;;;;;;;;;5008955;28;20029;-84
2021/01/03 08:23:20;;;;;;;99.03;31.73;;;;;;;;;;5020421;28;20506;-81
2021/01/03 08:25:46;;;;;;;99.73;34.10;;;;;;;;;;5025911;28;20662;-81
2021/01/03 08:28:13;;;;;;;101.13;31.60;;;;;;;;;;5024235;28;20021;-83
2021/01/03 08:30:39;;;;;;;98.50;31.80;;;;;;;;;;5020990;28;20022;-84
2021/01/03 08:33:09;;;;;;;103.70;35.20;;;;;;;;;;5021824;28;20030;-84
2021/01/03 08:35:34;;;;;;;95.70;33.03;;;;;;;;;;5021211;28;20061;-88
2021/01/03 08:37:59;;;;;;;100.73;31.87;;;;;;;;;;5009209;28;20053;-87
2021/01/03 08:40:27;;;;;;;94.17;31.87;;;;;;;;;;5009334;28;20023;-89
2021/01/03 08:42:58;;;;;;;100.30;33.47;;;;;;;;;;5015268;28;20021;-86
2021/01/03 08:45:27;;;;;;;100.37;30.70;;;;;;;;;;5014067;28;20120;-83
2021/01/03 08:47:52;;;;;;;101.00;31.30;;;;;;;;;;5012020;28;20025;-86
2021/01/03 08:50:22;;;;;;;95.07;32.40;;;;;;;;;;5020663;28;20032;-85
2021/01/03 08:52:58;;;;;;;98.43;32.63;;;;;;;;;;5024885;28;20372;-86
2021/01/03 08:55:24;;;;;;;98.17;32.50;;;;;;;;;;5024148;28;20017;-87
2021/01/03 08:57:54;;;;;;;105.03;33.40;;;;;;;;;;5009816;28;20029;-92
2021/01/03 09:00:20;;;;;;;96.23;30.00;;;;;;;;;;5005094;28;20026;-92
2021/01/03 09:02:47;;;;;;;102.17;32.60;;;;;;;;;;5004505;28;20057;-90
2021/01/03 09:05:16;;;;;;;92.27;31.00;;;;;;;;;;5010524;28;20030;-89
2021/01/03 09:07:42;;;;;;;92.27;31.80;;;;;;;;;;5021207;28;20033;-91
2021/01/03 09:10:08;;;;;;;98.97;32.13;;;;;;;;;;5027720;28;20026;-92
2021/01/03 09:12:38;;;;;;;99.27;32.13;;;;;;;;;;5021260;28;20480;-91
2021/01/03 09:15:29;;;;;;;87.40;30.00;;;;;;;;;;5024090;28;20036;-88
2021/01/03 09:18:18;;;;;;;100.37;31.97;;;;;;;;;;5024700;28;20500;-92
2021/01/03 09:20:45;;;;;;;95.03;32.47;;;;;;;;;;5020373;28;20172;-90
2021/01/03 09:23:12;;;;;;;88.10;30.20;;;;;;;;;;5005981;28;20034;-90
2021/01/03 09:25:39;;;;;;;90.80;31.57;;;;;;;;;;5025581;28;20128;-91
2021/01/03 09:28:27;;;;;;;88.23;31.17;;;;;;;;;;5015523;28;20116;-91
2021/01/03 09:31:11;;;;;;;85.67;28.43;;;;;;;;;;5021618;28;20037;-89
2021/01/03 09:33:36;;;;;;;94.50;34.47;;;;;;;;;;5016485;28;20022;-90
2021/01/03 09:36:21;;;;;;;75.70;28.07;;;;;;;;;;5020671;28;20037;-91
2021/01/03 09:38:52;;;;;;;78.07;29.97;;;;;;;;;;5015166;28;20034;-90
2021/01/03 09:41:23;;;;;;;79.27;26.87;;;;;;;;;;5012246;28;20794;-90
2021/01/03 09:44:22;;;;;;;80.83;27.10;;;;;;;;;;5012432;28;20264;-91
2021/01/03 09:46:53;;;;;;;73.83;25.60;;;;;;;;;;4973445;28;20402;-88
2021/01/03 09:49:24;;;;;;;70.25;26.35;;;;;;;;;;5009880;28;20022;-89
2021/01/03 09:52:00;;;;;;;70.97;25.67;;;;;;;;;;5004049;28;20022;-88
2021/01/03 09:54:33;;;;;;;77.57;26.57;;;;;;;;;;5015698;28;20021;-88
2021/01/03 09:56:58;;;;;;;;;;;;;;;;;;5010220;28;20493;-87
2021/01/03 09:59:23;;;;;;;71.97;24.03;;;;;;;;;;5027427;28;19905;-88
2021/01/03 10:01:50;;;;;;;72.30;24.80;;;;;;;;;;5014707;28;20269;-87
2021/01/03 10:04:23;;;;;;;53.63;21.20;;;;;;;;;;5014804;28;20037;-86
2021/01/03 10:06:56;;;;;;;68.83;26.23;;;;;;;;;;5030959;28;20365;-87
2021/01/03 10:09:25;;;;;;;66.93;25.07;;;;;;;;;;5012118;28;20101;-86
2021/01/03 10:11:51;;;;;;;59.93;24.10;;;;;;;;;;5005818;28;20042;-87
2021/01/03 10:14:33;;;;;;;61.63;25.10;;;;;;;;;;5000810;28;20388;-86
2021/01/03 10:17:17;;;;;;;57.72;22.75;;;;;;;;;;5014448;28;20021;-86
2021/01/03 10:19:43;;;;;;;53.50;21.50;;;;;;;;;;5001456;28;20030;-87
2021/01/03 10:22:27;;;;;;;54.27;22.50;;;;;;;;;;5028930;28;20024;-88
2021/01/03 10:24:56;;;;;;;55.77;22.53;;;;;;;;;;5014229;28;20045;-87
2021/01/03 10:27:21;;;;;;;58.77;22.77;;;;;;;;;;5011435;28;20017;-87
2021/01/03 10:29:47;;;;;;;52.33;21.30;;;;;;;;;;5011355;28;20105;-87
2021/01/03 10:32:12;;;;;;;61.55;24.67;;;;;;;;;;5012632;28;20117;-87
2021/01/03 10:34:37;;;;;;;58.07;20.97;;;;;;;;;;5012709;28;20025;-87
2021/01/03 10:37:02;;;;;;;45.78;19.15;;;;;;;;;;5012820;28;20468;-88
2021/01/03 10:39:28;;;;;;;49.95;20.83;;;;;;;;;;5012155;28;20013;-85
2021/01/03 10:41:53;;;;;;;59.00;24.47;;;;;;;;;;5005352;28;20026;-87
2021/01/03 10:44:19;;;;;;;52.33;24.17;;;;;;;;;;5010043;28;20354;-87
2021/01/03 10:46:46;;;;;;;43.90;18.53;;;;;;;;;;5012847;28;20022;-88
2021/01/03 10:49:11;;;;;;;47.70;19.80;;;;;;;;;;5011312;28;20014;-87
2021/01/03 10:51:41;;;;;;;46.23;17.93;;;;;;;;;;5012673;28;20018;-87
2021/01/03 10:54:07;;;;;;;45.23;19.63;;;;;;;;;;5013920;28;20022;-87
2021/01/03 10:56:33;;;;;;;53.13;21.40;;;;;;;;;;5012486;28;20052;-87
2021/01/03 10:58:58;;;;;;;49.77;21.10;;;;;;;;;;5012703;28;20441;-87
2021/01/03 11:01:23;;;;;;;46.00;20.23;;;;;;;;;;5012268;28;20046;-87
2021/01/03 11:03:49;;;;;;;40.50;17.67;;;;;;;;;;5010377;28;20034;-87
2021/01/03 11:06:14;;;;;;;41.60;15.87;;;;;;;;;;5021869;28;20120;-87
2021/01/03 11:08:40;;;;;;;43.13;18.97;;;;;;;;;;5013497;28;20366;-87
2021/01/03 11:11:06;;;;;;;45.97;18.57;;;;;;;;;;5011566;28;20025;-86
2021/01/03 11:13:31;;;;;;;41.80;18.33;;;;;;;;;;5013244;28;20061;-87
2021/01/03 11:15:56;;;;;;;37.83;14.60;;;;;;;;;;5012320;28;20040;-87
2021/01/03 11:18:21;;;;;;;37.20;16.35;;;;;;;;;;5012002;28;20388;-86
2021/01/03 11:20:46;;;;;;;44.17;20.50;;;;;;;;;;5010548;28;20022;-86
2021/01/03 11:23:12;;;;;;;44.70;19.47;;;;;;;;;;5010837;28;20040;-86
2021/01/03 11:25:37;;;;;;;42.08;18.05;;;;;;;;;;5012014;28;20033;-87
2021/01/03 11:28:02;;;;;;;38.57;17.37;;;;;;;;;;5013365;28;20050;-87
2021/01/03 11:30:27;;;;;;;37.60;16.33;;;;;;;;;;5009163;28;20470;-87
2021/01/03 11:32:53;;;;;;;33.77;14.43;;;;;;;;;;5011994;28;20017;-87
2021/01/03 11:35:18;;;;;;;38.13;16.03;;;;;;;;;;5012043;28;20463;-87
2021/01/03 11:37:43;;;;;;;36.63;15.00;;;;;;;;;;5011980;28;20125;-86
2021/01/03 11:40:09;;;;;;;30.15;14.07;;;;;;;;;;5009889;28;20022;-86
2021/01/03 11:42:36;;;;;;;33.63;15.53;;;;;;;;;;5011007;28;20022;-85
2021/01/03 11:45:01;;;;;;;32.73;14.90;;;;;;;;;;5011764;28;20017;-87
2021/01/03 11:47:28;;;;;;;30.20;14.18;;;;;;;;;;5011580;28;20105;-87
2021/01/03 11:49:53;;;;;;;45.20;16.63;;;;;;;;;;5011740;28;20013;-86
2021/01/03 11:52:19;;;;;;;31.53;13.97;;;;;;;;;;5012711;28;20022;-87
2021/01/03 11:54:44;;;;;;;27.17;12.70;;;;;;;;;;5012908;28;20010;-86
2021/01/03 11:57:10;;;;;;;34.23;14.27;;;;;;;;;;5013034;28;20025;-87
2021/01/03 11:59:35;;;;;;;26.40;11.90;;;;;;;;;;5011357;28;20464;-87
2021/01/03 12:02:02;;;;;;;29.10;12.43;;;;;;;;;;5005988;28;20092;-87
2021/01/03 12:04:27;;;;;;;25.03;12.17;;;;;;;;;;5012765;28;20028;-87
2021/01/03 12:06:54;;;;;;;29.80;12.60;;;;;;;;;;5012484;28;20527;-86
2021/01/03 12:09:19;;;;;;;32.53;14.13;;;;;;;;;;5011198;28;20105;-86
2021/01/03 12:11:49;;;;;;;28.57;12.27;;;;;;;;;;5013351;28;20117;-87
2021/01/03 12:14:14;;;;;;;25.60;12.20;;;;;;;;;;5012030;28;20041;-87
2021/01/03 12:16:40;;;;;;;24.50;10.83;;;;;;;;;;5014263;28;20018;-86
2021/01/03 12:19:05;;;;;;;23.47;10.43;;;;;;;;;;5015481;28;20112;-87
2021/01/03 12:21:31;;;;;;;22.60;9.95;;;;;;;;;;5014888;28;20106;-86
2021/01/03 12:23:57;;;;;;;23.27;11.47;;;;;;;;;;5014997;28;20137;-87
2021/01/03 12:26:24;;;;;;;23.63;10.17;;;;;;;;;;5012949;28;20035;-87
2021/01/03 12:28:49;;;;;;;21.93;9.53;;;;;;;;;;5014944;28;20022;-86
2021/01/03 12:31:15;;;;;;;21.85;10.20;;;;;;;;;;5013219;28;20033;-87
2021/01/03 12:33:40;;;;;;;21.25;10.00;;;;;;;;;;5030187;28;20021;-86
2021/01/03 12:36:06;;;;;;;21.73;10.77;;;;;;;;;;5013065;28;20018;-87
2021/01/03 12:38:31;;;;;;;21.53;8.70;;;;;;;;;;5007335;28;20380;-87
2021/01/03 12:40:57;;;;;;;21.27;9.40;;;;;;;;;;5016353;28;20072;-87
2021/01/03 12:43:22;;;;;;;18.97;9.80;;;;;;;;;;5014781;28;20072;-87
2021/01/03 12:45:48;;;;;;;21.17;10.40;;;;;;;;;;5014723;28;20396;-87
2021/01/03 12:48:13;;;;;;;20.43;10.10;;;;;;;;;;5004579;28;20026;-87
2021/01/03 12:50:38;;;;;;;21.37;8.13;;;;;;;;;;5014626;28;20037;-87
2021/01/03 12:53:03;;;;;;;21.27;10.17;;;;;;;;;;5014440;28;20041;-86
2021/01/03 12:55:28;;;;;;;18.60;9.87;;;;;;;;;;5014687;28;20041;-87
2021/01/03 12:57:54;;;;;;;20.70;9.83;;;;;;;;;;5013372;28;20469;-87
2021/01/03 13:00:19;;;;;;;20.92;9.00;;;;;;;;;;5009848;28;20084;-86
2021/01/03 13:02:44;;;;;;;19.92;8.93;;;;;;;;;;5013293;28;20029;-86
2021/01/03 13:05:10;;;;;;;17.27;9.00;;;;;;;;;;5015327;28;20014;-87
2021/01/03 13:07:35;;;;;;;20.50;9.35;;;;;;;;;;5014308;28;20045;-86
2021/01/03 13:10:00;;;;;;;15.27;7.63;;;;;;;;;;5013903;28;20364;-86
2021/01/03 13:12:25;;;;;;;19.33;9.02;;;;;;;;;;5014387;28;20053;-86
2021/01/03 13:14:50;;;;;;;16.92;8.13;;;;;;;;;;5015080;28;20029;-87
2021/01/03 13:17:16;;;;;;;16.70;8.55;;;;;;;;;;5014816;28;20097;-87
2021/01/03 13:19:41;;;;;;;17.85;8.55;;;;;;;;;;5014257;28;20018;-87
2021/01/03 13:22:06;;;;;;;15.23;7.43;;;;;;;;;;5013880;28;20041;-86
2021/01/03 13:24:31;;;;;;;15.15;8.45;;;;;;;;;;5015020;28;20149;-86
2021/01/03 13:26:56;;;;;;;15.18;8.10;;;;;;;;;;5001109;28;20440;-86
2021/01/03 13:29:22;;;;;;;15.25;7.60;;;;;;;;;;5014266;28;20033;-87
2021/01/03 13:31:47;;;;;;;15.25;7.45;;;;;;;;;;5012854;28;20048;-88
2021/01/03 13:34:12;;;;;;;18.67;9.25;;;;;;;;;;5013788;28;20014;-90
2021/01/03 13:36:42;;;;;;;22.40;9.50;;;;;;;;;;5014120;28;20075;-88
2021/01/03 13:39:07;;;;;;;15.25;7.63;;;;;;;;;;5015587;28;20093;-87
2021/01/03 13:41:32;;;;;;;24.10;11.98;;;;;;;;;;5014354;28;20109;-87
2021/01/03 13:43:57;;;;;;;17.45;8.57;;;;;;;;;;5025172;28;20025;-87
2021/01/03 13:46:23;;;;;;;13.30;7.43;;;;;;;;;;5013499;28;20029;-86
2021/01/03 13:48:48;;;;;;;15.23;7.15;;;;;;;;;;5013565;28;20037;-87
2021/01/03 13:51:13;;;;;;;11.70;6.40;;;;;;;;;;5013586;28;20375;-87
2021/01/03 13:53:39;;;;;;;13.40;6.70;;;;;;;;;;5013544;28;20026;-86
2021/01/03 13:56:04;;;;;;;17.67;9.43;;;;;;;;;;5012106;28;20026;-87
2021/01/03 13:58:29;;;;;;;15.13;7.45;;;;;;;;;;5013440;28;20441;-87
2021/01/03 14:00:55;;;;;;;15.80;8.40;;;;;;;;;;5013330;28;20026;-86
2021/01/03 14:03:20;;;;;;;11.27;6.33;;;;;;;;;;5014017;28;20018;-87
2021/01/03 14:05:45;;;;;;;14.38;6.63;;;;;;;;;;5008475;28;20025;-87
2021/01/03 14:08:11;;;;;;;11.30;6.10;;;;;;;;;;5012980;28;20096;-86
2021/01/03 14:10:38;;;;;;;13.55;5.68;;;;;;;;;;5012454;28;20025;-86
2021/01/03 14:13:04;;;;;;;10.85;6.60;;;;;;;;;;5012982;28;20040;-86
2021/01/03 14:15:29;;;;;;;12.77;6.60;;;;;;;;;;5014408;28;20026;-87
2021/01/03 14:17:54;;;;;;;11.63;6.75;;;;;;;;;;5004613;28;20107;-87
2021/01/03 14:20:21;;;;;;;12.43;7.38;;;;;;;;;;5012779;28;20084;-87
2021/01/03 14:22:47;;;;;;;16.05;8.52;;;;;;;;;;5013044;28;20160;-87
2021/01/03 14:25:15;;;;;;;12.75;6.93;;;;;;;;;;5012744;28;20072;-86